Time;durP1;ratioP1;P1;durP2;ratioP2;P2;SDS_P1;SDS_P2;PMS_P1;PMS_P2;Temp;Humidity;BMP_temperature;BMP_pressure;BME280_temperature;BME280_humidity;BME280_pressure;Samples;Min_cycle;Max_cycle;Signal;HPM_P1;HPM_P2
2024/03/26 00:00:28;;;;;;;15.47;14.10;;;1.60;99.90;;;;;;5019136;28;20324;-53
2024/03/26 00:02:54;;;;;;;15.43;13.80;;;1.50;99.90;;;;;;5019448;28;20193;-47
2024/03/26 00:05:19;;;;;;;14.33;13.20;;;1.50;99.90;;;;;;5019340;28;20206;-43
2024/03/26 00:07:45;;;;;;;15.27;14.20;;;1.50;99.90;;;;;;5018929;28;20214;-46
2024/03/26 00:10:10;;;;;;;16.80;14.20;;;1.40;99.90;;;;;;5018904;28;20187;-46
2024/03/26 00:12:36;;;;;;;15.80;14.53;;;1.40;99.90;;;;;;5018765;28;20622;-49
2024/03/26 00:15:02;;;;;;;15.00;13.80;;;1.30;99.90;;;;;;5017878;28;20189;-50
2024/03/26 00:17:27;;;;;;;15.63;14.13;;;1.30;99.90;;;;;;5018445;28;20226;-42
2024/03/26 00:19:53;;;;;;;15.37;13.97;;;1.30;99.90;;;;;;5018945;28;20225;-51
2024/03/26 00:22:19;;;;;;;15.60;14.30;;;1.30;99.90;;;;;;5018775;28;20668;-50
2024/03/26 00:24:44;;;;;;;13.83;12.73;;;1.30;99.90;;;;;;5018991;28;20206;-48
2024/03/26 00:27:10;;;;;;;14.97;13.77;;;1.30;99.90;;;;;;5022220;28;20751;-47
2024/03/26 00:29:35;;;;;;;15.67;14.27;;;1.30;99.90;;;;;;5022527;28;20687;-47
2024/03/26 00:32:01;;;;;;;14.33;13.33;;;1.30;99.90;;;;;;5022359;28;20277;-51
2024/03/26 00:34:27;;;;;;;16.80;15.20;;;1.30;99.90;;;;;;5022083;28;20205;-43
2024/03/26 00:36:53;;;;;;;14.85;13.52;;;1.30;99.90;;;;;;5022170;28;20210;-50
2024/03/26 00:39:18;;;;;;;14.90;13.70;;;1.30;99.90;;;;;;5022400;28;20339;-50
2024/03/26 00:41:44;;;;;;;15.33;13.93;;;1.30;99.90;;;;;;5022642;28;20816;-41
2024/03/26 00:44:10;;;;;;;15.27;13.97;;;1.30;99.90;;;;;;5020727;28;20232;-40
2024/03/26 00:46:35;;;;;;;14.63;13.43;;;1.30;99.90;;;;;;5021954;28;20195;-39
2024/03/26 00:49:01;;;;;;;15.33;14.00;;;1.30;99.90;;;;;;5020838;28;20598;-40
2024/03/26 00:51:26;;;;;;;15.00;13.80;;;1.30;99.90;;;;;;5022052;28;20187;-44
2024/03/26 00:53:52;;;;;;;15.47;14.03;;;1.30;99.90;;;;;;5022139;28;20179;-42
2024/03/26 00:56:17;;;;;;;14.97;13.43;;;1.30;99.90;;;;;;5021378;28;20198;-39
2024/03/26 00:58:43;;;;;;;16.27;14.93;;;1.30;99.90;;;;;;5022026;28;20228;-43
2024/03/26 01:01:09;;;;;;;15.17;13.57;;;1.30;99.90;;;;;;5022068;28;20726;-42
2024/03/26 01:03:35;;;;;;;13.97;12.93;;;1.20;99.90;;;;;;5022231;28;20187;-40
2024/03/26 01:06:01;;;;;;;14.43;13.25;;;1.20;99.90;;;;;;5021575;28;20986;-41
2024/03/26 01:08:27;;;;;;;15.40;13.90;;;1.20;99.90;;;;;;5020942;28;20265;-46
2024/03/26 01:10:53;;;;;;;15.93;14.37;;;1.20;99.90;;;;;;5021644;28;20425;-39
2024/03/26 01:13:18;;;;;;;14.70;13.47;;;1.20;99.90;;;;;;5021631;28;20206;-42
2024/03/26 01:15:44;;;;;;;14.63;13.40;;;1.20;99.90;;;;;;5021170;28;20437;-38
2024/03/26 01:18:10;;;;;;;14.10;13.00;;;1.20;99.90;;;;;;5021525;28;20692;-42
2024/03/26 01:20:36;;;;;;;14.47;13.10;;;1.20;99.90;;;;;;5021389;28;20178;-38
2024/03/26 01:23:03;;;;;;;15.05;13.65;;;1.20;99.90;;;;;;5021633;28;20418;-37
2024/03/26 01:25:29;;;;;;;18.00;13.73;;;1.20;99.90;;;;;;5021786;28;20194;-38
2024/03/26 01:27:56;;;;;;;15.17;13.77;;;1.30;99.90;;;;;;5021154;28;20364;-38
2024/03/26 01:30:23;;;;;;;15.75;14.45;;;1.40;99.90;;;;;;5020943;28;20374;-38
2024/03/26 01:32:48;;;;;;;15.00;13.65;;;1.60;99.90;;;;;;5021359;28;20617;-41
2024/03/26 01:35:14;;;;;;;16.03;14.50;;;1.70;99.90;;;;;;5020950;28;20671;-41
2024/03/26 01:37:40;;;;;;;15.73;14.33;;;1.90;99.90;;;;;;5020272;28;20602;-41
2024/03/26 01:40:08;;;;;;;15.40;14.00;;;2.00;99.90;;;;;;5020951;28;20527;-41
2024/03/26 01:42:35;;;;;;;15.18;13.75;;;2.10;99.90;;;;;;5021386;28;20185;-40
2024/03/26 01:45:01;;;;;;;15.88;14.13;;;2.20;99.90;;;;;;5021285;28;20536;-38
2024/03/26 01:47:27;;;;;;;15.95;14.45;;;2.40;99.90;;;;;;5020942;28;20182;-40
2024/03/26 01:49:55;;;;;;;16.30;14.60;;;2.50;99.90;;;;;;5020844;28;20195;-41
2024/03/26 01:52:23;;;;;;;15.95;14.40;;;2.60;99.90;;;;;;5020997;28;20186;-38
2024/03/26 01:54:49;;;;;;;15.40;14.00;;;2.70;99.90;;;;;;5021018;28;20244;-40
2024/03/26 01:57:15;;;;;;;17.90;16.10;;;2.80;99.90;;;;;;5020267;28;20657;-38
2024/03/26 01:59:42;;;;;;;17.23;15.50;;;2.90;98.60;;;;;;5020456;28;20567;-43
2024/03/26 02:02:08;;;;;;;15.90;14.68;;;3.00;79.10;;;;;;5020683;28;20177;-44
2024/03/26 02:04:34;;;;;;;17.30;15.60;;;3.20;58.30;;;;;;5020271;28;20644;-49
2024/03/26 02:06:59;;;;;;;16.87;15.20;;;3.30;47.70;;;;;;5020815;28;20344;-45
2024/03/26 02:09:25;;;;;;;17.80;16.20;;;3.30;32.40;;;;;;5020128;28;20187;-47
2024/03/26 02:11:51;;;;;;;17.13;15.70;;;3.40;27.60;;;;;;5020470;28;20206;-45
2024/03/26 02:14:18;;;;;;;17.43;15.93;;;3.50;19.90;;;;;;5020838;28;20456;-44
2024/03/26 02:16:43;;;;;;;17.15;15.65;;;3.60;7.10;;;;;;5020589;28;20481;-50
2024/03/26 02:19:09;;;;;;;17.47;15.90;;;3.70;1.00;;;;;;5020107;28;20563;-50
2024/03/26 02:21:35;;;;;;;15.83;14.43;;;3.70;1.00;;;;;;5020697;28;20421;-49
2024/03/26 02:24:00;;;;;;;17.10;15.07;;;3.80;1.00;;;;;;5020066;28;20428;-48
2024/03/26 02:26:26;;;;;;;15.23;14.03;;;3.80;1.00;;;;;;5019855;28;20190;-49
2024/03/26 02:28:55;;;;;;;16.03;14.67;;;3.90;1.00;;;;;;5020296;28;20579;-42
2024/03/26 02:31:21;;;;;;;15.73;14.43;;;3.90;1.00;;;;;;5019317;28;20202;-50
2024/03/26 02:33:46;;;;;;;15.33;14.13;;;3.90;1.00;;;;;;5020325;28;20190;-48
2024/03/26 02:36:12;;;;;;;15.80;14.57;;;4.00;1.00;;;;;;5020083;28;20440;-50
2024/03/26 02:38:38;;;;;;;15.70;14.30;;;4.00;1.00;;;;;;5019713;28;20207;-46
2024/03/26 02:41:04;;;;;;;15.17;13.77;;;4.10;1.00;;;;;;5020347;28;20769;-47
2024/03/26 02:43:31;;;;;;;15.90;14.70;;;4.10;1.00;;;;;;5019992;28;20405;-48
2024/03/26 02:45:57;;;;;;;15.48;14.27;;;4.00;1.00;;;;;;5019775;28;20541;-46
2024/03/26 02:48:22;;;;;;;16.00;14.70;;;4.10;1.00;;;;;;5019582;28;20193;-43
2024/03/26 02:50:51;;;;;;;14.83;13.73;;;4.10;1.00;;;;;;5019317;28;20179;-49
2024/03/26 02:53:23;;;;;;;16.13;14.48;;;4.00;1.00;;;;;;5017996;28;21170;-48
2024/03/26 02:55:49;;;;;;;14.65;13.55;;;4.00;1.00;;;;;;5019645;28;20185;-47
2024/03/26 02:58:14;;;;;;;14.70;13.50;;;4.00;1.00;;;;;;5019735;28;20206;-49
2024/03/26 03:00:40;;;;;;;15.53;14.23;;;3.90;1.00;;;;;;5019717;28;20236;-51
2024/03/26 03:03:05;;;;;;;15.53;14.23;;;3.90;1.00;;;;;;5019828;28;20232;-49
2024/03/26 03:05:31;;;;;;;15.93;14.73;;;3.90;1.00;;;;;;5019905;28;20259;-52
2024/03/26 03:07:56;;;;;;;16.20;14.90;;;3.90;1.00;;;;;;5019402;28;20197;-46
2024/03/26 03:10:22;;;;;;;15.70;14.60;;;3.90;1.00;;;;;;5019629;28;20759;-49
2024/03/26 03:12:48;;;;;;;15.30;14.20;;;3.90;1.00;;;;;;5019276;28;20548;-50
2024/03/26 03:15:13;;;;;;;15.40;14.10;;;3.90;1.00;;;;;;5019517;28;20186;-46
2024/03/26 03:17:39;;;;;;;16.40;14.90;;;3.90;1.00;;;;;;5017737;28;20303;-50
2024/03/26 03:20:05;;;;;;;15.67;14.17;;;3.90;1.00;;;;;;5018487;28;20538;-48
2024/03/26 03:22:30;;;;;;;16.23;14.70;;;3.90;1.00;;;;;;5018532;28;20193;-49
2024/03/26 03:24:56;;;;;;;15.20;14.00;;;3.80;1.00;;;;;;5019238;28;20840;-52
2024/03/26 03:27:22;;;;;;;15.03;13.80;;;3.80;1.00;;;;;;5019430;28;20183;-46
2024/03/26 03:29:47;;;;;;;15.40;14.20;;;3.80;1.00;;;;;;5019236;28;20197;-52
2024/03/26 03:32:13;;;;;;;15.40;14.20;;;3.80;1.00;;;;;;5019283;28;20221;-49
2024/03/26 03:34:39;;;;;;;14.23;13.27;;;3.80;1.00;;;;;;5019498;28;20663;-41
2024/03/26 03:37:04;;;;;;;15.60;14.30;;;3.80;1.00;;;;;;5019279;28;20629;-45
2024/03/26 03:39:30;;;;;;;15.10;13.93;;;3.80;1.00;;;;;;5019358;28;20228;-42
2024/03/26 03:41:55;;;;;;;15.83;14.53;;;3.90;1.00;;;;;;5019067;28;20826;-47
2024/03/26 03:44:21;;;;;;;15.50;14.30;;;3.90;1.00;;;;;;5019743;28;20182;-43
2024/03/26 03:46:46;;;;;;;14.73;13.43;;;3.90;1.00;;;;;;5018027;28;20200;-43
2024/03/26 03:49:12;;;;;;;14.63;13.53;;;3.90;1.00;;;;;;5019351;28;20189;-40
2024/03/26 03:51:37;;;;;;;15.07;13.67;;;3.90;1.00;;;;;;5018764;28;20190;-43
2024/03/26 03:54:03;;;;;;;14.93;13.83;;;3.90;1.00;;;;;;5019416;28;20361;-39
2024/03/26 03:56:29;;;;;;;14.73;13.63;;;4.00;1.00;;;;;;5018505;28;20186;-42
2024/03/26 03:58:54;;;;;;;14.87;13.60;;;4.00;1.00;;;;;;5019074;28;20286;-39
2024/03/26 04:01:20;;;;;;;14.90;13.50;;;4.10;1.00;;;;;;5021596;28;20720;-42
2024/03/26 04:03:45;;;;;;;14.90;13.67;;;4.10;1.00;;;;;;5022480;28;20611;-44
2024/03/26 04:06:11;;;;;;;15.20;14.10;;;4.10;1.00;;;;;;5022745;28;20186;-41
2024/03/26 04:08:37;;;;;;;15.80;14.40;;;4.10;1.00;;;;;;5022471;28;20202;-40
2024/03/26 04:11:02;;;;;;;15.17;13.93;;;4.10;1.00;;;;;;5022690;28;20210;-41
2024/03/26 04:13:28;;;;;;;15.43;14.07;;;4.10;1.00;;;;;;5023078;28;20190;-39
2024/03/26 04:15:53;;;;;;;14.93;13.80;;;4.10;1.00;;;;;;5021542;28;20356;-43
2024/03/26 04:18:19;;;;;;;14.50;13.40;;;4.10;1.00;;;;;;5022427;28;20235;-39
2024/03/26 04:20:46;;;;;;;15.00;13.70;;;4.10;1.00;;;;;;5022256;28;20590;-39
2024/03/26 04:23:11;;;;;;;14.50;13.40;;;4.10;1.00;;;;;;5022436;28;20282;-42
2024/03/26 04:25:37;;;;;;;15.37;14.07;;;4.10;1.00;;;;;;5022646;28;20278;-39
2024/03/26 04:28:03;;;;;;;14.90;13.77;;;4.10;1.00;;;;;;5022409;28;20190;-41
2024/03/26 04:30:28;;;;;;;16.30;15.00;;;4.10;1.00;;;;;;5023089;28;20276;-40
2024/03/26 04:32:54;;;;;;;15.60;14.30;;;4.10;1.00;;;;;;5022427;28;20277;-49
2024/03/26 04:35:19;;;;;;;14.93;13.73;;;4.10;1.00;;;;;;5022042;28;20201;-54
2024/03/26 04:37:45;;;;;;;15.53;14.33;;;4.10;1.00;;;;;;5021803;28;20240;-50
2024/03/26 04:40:11;;;;;;;15.93;14.57;;;4.10;1.00;;;;;;5022077;28;20194;-48
2024/03/26 04:42:37;;;;;;;15.73;14.43;;;4.10;1.00;;;;;;5021709;28;20191;-49
2024/03/26 04:45:03;;;;;;;15.27;14.10;;;4.10;1.00;;;;;;5020373;28;20253;-46
2024/03/26 04:47:29;;;;;;;14.45;13.25;;;4.00;1.00;;;;;;5020978;28;20174;-51
2024/03/26 04:49:55;;;;;;;14.63;13.63;;;4.10;1.00;;;;;;5020028;28;20179;-50
2024/03/26 04:52:20;;;;;;;15.50;14.10;;;4.10;1.00;;;;;;5022078;28;20363;-47
2024/03/26 04:54:46;;;;;;;13.37;12.17;;;4.10;1.00;;;;;;5022691;28;20563;-45
2024/03/26 04:57:12;;;;;;;14.10;13.00;;;4.10;1.00;;;;;;5021797;28;20174;-53
2024/03/26 04:59:38;;;;;;;14.40;13.30;;;4.10;1.00;;;;;;5022113;28;20206;-52
2024/03/26 05:02:03;;;;;;;15.10;13.60;;;4.10;1.00;;;;;;5021802;28;21078;-52
2024/03/26 05:04:30;;;;;;;15.18;13.82;;;4.10;1.00;;;;;;5021793;28;20244;-51
2024/03/26 05:06:56;;;;;;;14.97;13.70;;;4.10;1.00;;;;;;5022164;28;20637;-45
2024/03/26 05:09:21;;;;;;;15.20;14.10;;;4.10;1.00;;;;;;5021772;28;20667;-45
2024/03/26 05:11:47;;;;;;;15.10;13.80;;;4.10;1.00;;;;;;5022171;28;20194;-45
2024/03/26 05:14:12;;;;;;;15.80;14.50;;;4.10;1.00;;;;;;5021694;28;20648;-48
2024/03/26 05:16:38;;;;;;;14.80;13.67;;;4.20;1.00;;;;;;5021047;28;20191;-48
2024/03/26 05:19:03;;;;;;;14.93;13.63;;;4.20;1.00;;;;;;5022269;28;20237;-46
2024/03/26 05:21:29;;;;;;;15.63;14.43;;;4.20;1.00;;;;;;5022581;28;20712;-47
2024/03/26 05:23:55;;;;;;;15.63;14.50;;;4.20;1.00;;;;;;5022381;28;20189;-49
2024/03/26 05:26:20;;;;;;;15.73;14.43;;;4.30;1.00;;;;;;5022599;28;21019;-45
2024/03/26 05:28:46;;;;;;;16.03;14.73;;;4.40;1.00;;;;;;5022545;28;20190;-50
2024/03/26 05:31:20;;;;;;;15.80;14.50;;;4.40;1.00;;;;;;5022725;28;20731;-48
2024/03/26 05:33:47;;;;;;;15.85;14.52;;;4.40;1.00;;;;;;5022587;28;20183;-48
2024/03/26 05:36:14;;;;;;;14.57;13.43;;;4.40;1.00;;;;;;5021144;28;20201;-51
2024/03/26 05:38:40;;;;;;;15.30;14.02;;;4.50;1.00;;;;;;5021592;28;20296;-48
2024/03/26 05:41:06;;;;;;;14.65;13.55;;;4.50;1.00;;;;;;5021647;28;20205;-39
2024/03/26 05:43:32;;;;;;;16.73;15.33;;;4.50;1.00;;;;;;5021675;28;20187;-43
2024/03/26 05:45:58;;;;;;;15.85;14.55;;;4.50;1.00;;;;;;5021822;28;20796;-39
2024/03/26 05:48:24;;;;;;;15.50;14.40;;;4.60;1.00;;;;;;5021876;28;20193;-39
2024/03/26 05:50:52;;;;;;;15.60;14.38;;;4.60;1.00;;;;;;5021599;28;20513;-41
2024/03/26 05:53:17;;;;;;;16.05;14.57;;;4.80;1.00;;;;;;5019216;28;20210;-42
2024/03/26 05:55:43;;;;;;;14.73;13.47;;;4.80;1.00;;;;;;5020233;28;20196;-38
2024/03/26 05:58:09;;;;;;;16.10;14.40;;;4.90;1.00;;;;;;5020182;28;20696;-38
2024/03/26 06:00:34;;;;;;;15.70;14.47;;;4.90;1.00;;;;;;5020367;28;20182;-40
2024/03/26 06:03:00;;;;;;;14.40;13.20;;;5.00;1.00;;;;;;5020225;28;20229;-37
2024/03/26 06:05:26;;;;;;;13.88;12.85;;;5.10;1.00;;;;;;5020322;28;20262;-46
2024/03/26 06:07:52;;;;;;;15.40;13.87;;;5.10;99.90;;;;;;5020340;28;20182;-44
2024/03/26 06:10:17;;;;;;;15.60;14.40;;;5.20;8.60;;;;;;5020594;28;20194;-45
2024/03/26 06:12:43;;;;;;;15.40;14.10;;;5.30;1.00;;;;;;5020818;28;20187;-38
2024/03/26 06:15:09;;;;;;;15.83;14.47;;;5.30;99.90;;;;;;5020200;28;20544;-42
2024/03/26 06:17:35;;;;;;;15.70;14.30;;;5.40;5.00;;;;;;5020414;28;20245;-41
2024/03/26 06:20:00;;;;;;;15.40;14.27;;;5.40;1.00;;;;;;5020205;28;20857;-41
2024/03/26 06:22:26;;;;;;;16.43;15.13;;;5.50;1.00;;;;;;5018336;28;20273;-40
2024/03/26 06:24:53;;;;;;;14.93;13.83;;;5.70;1.00;;;;;;5020196;28;20200;-40
2024/03/26 06:27:18;;;;;;;15.70;14.50;;;5.70;1.00;;;;;;5019031;28;20190;-43
2024/03/26 06:29:44;;;;;;;15.33;14.10;;;5.70;1.00;;;;;;5020206;28;20500;-49
2024/03/26 06:32:10;;;;;;;15.67;14.50;;;5.70;99.90;;;;;;5019785;28;20186;-44
2024/03/26 06:34:39;;;;;;;15.27;14.10;;;5.80;99.90;;;;;;5020004;28;20183;-50
2024/03/26 06:37:04;;;;;;;15.53;14.27;;;5.80;99.90;;;;;;5020307;28;20692;-43
2024/03/26 06:39:30;;;;;;;14.50;13.20;;;5.90;99.90;;;;;;5019812;28;20487;-50
2024/03/26 06:41:56;;;;;;;15.23;14.17;;;6.00;99.90;;;;;;5019885;28;20186;-47
2024/03/26 06:44:21;;;;;;;13.70;12.70;;;6.00;99.90;;;;;;5019969;28;20178;-50
2024/03/26 06:46:48;;;;;;;16.10;14.67;;;6.10;99.90;;;;;;5019608;28;20451;-43
2024/03/26 06:49:14;;;;;;;15.02;14.02;;;6.20;99.90;;;;;;5019650;28;20230;-47
2024/03/26 06:51:40;;;;;;;14.23;13.02;;;6.20;99.90;;;;;;5020464;28;20193;-50
2024/03/26 06:54:06;;;;;;;13.33;12.13;;;6.30;99.90;;;;;;5019525;28;20805;-50
2024/03/26 06:56:32;;;;;;;13.30;12.23;;;6.40;99.50;;;;;;5019319;28;20269;-47
2024/03/26 06:58:57;;;;;;;14.80;13.60;;;6.50;66.90;;;;;;5019371;28;20475;-46
2024/03/26 07:01:23;;;;;;;14.40;13.30;;;6.50;27.80;;;;;;5020435;28;20183;-47
2024/03/26 07:03:48;;;;;;;13.57;12.57;;;6.60;19.20;;;;;;5019726;28;20588;-49
2024/03/26 07:06:14;;;;;;;13.70;12.80;;;6.70;1.00;;;;;;5019761;28;20213;-44
2024/03/26 07:08:39;;;;;;;12.80;11.90;;;6.80;1.00;;;;;;5018273;28;20273;-45
2024/03/26 07:11:06;;;;;;;13.00;12.00;;;6.90;1.00;;;;;;5019303;28;20316;-46
2024/03/26 07:13:33;;;;;;;12.93;11.93;;;7.00;1.00;;;;;;5019622;28;20186;-43
2024/03/26 07:15:58;;;;;;;13.93;12.83;;;7.00;1.00;;;;;;5017985;28;20468;-49
2024/03/26 07:18:24;;;;;;;13.90;12.70;;;7.10;1.00;;;;;;5019061;28;20476;-48
2024/03/26 07:20:49;;;;;;;13.53;12.53;;;7.20;1.00;;;;;;5019497;28;20236;-44
2024/03/26 07:23:15;;;;;;;13.37;12.23;;;7.40;1.00;;;;;;5018748;28;20236;-47
2024/03/26 07:25:41;;;;;;;12.90;12.00;;;7.40;1.00;;;;;;5018665;28;20182;-48
2024/03/26 07:28:06;;;;;;;12.53;11.63;;;7.60;1.00;;;;;;5019335;28;20197;-48
2024/03/26 07:30:32;;;;;;;13.03;12.13;;;7.60;1.00;;;;;;5019074;28;20194;-45
2024/03/26 07:32:57;;;;;;;13.90;12.70;;;7.60;1.00;;;;;;5019616;28;20600;-46
2024/03/26 07:35:24;;;;;;;13.27;12.27;;;7.70;1.00;;;;;;5021861;28;20236;-44
2024/03/26 07:37:50;;;;;;;13.80;12.70;;;7.90;1.00;;;;;;5023532;28;20178;-47
2024/03/26 07:40:16;;;;;;;12.30;11.50;;;8.00;1.00;;;;;;5022905;28;20421;-44
2024/03/26 07:42:42;;;;;;;12.77;11.97;;;8.10;1.00;;;;;;5023360;28;21148;-47
2024/03/26 07:45:08;;;;;;;12.47;11.57;;;8.20;1.00;;;;;;5023394;28;20182;-45
2024/03/26 07:47:37;;;;;;;12.17;11.27;;;8.40;1.00;;;;;;5023577;28;20940;-43
2024/03/26 07:50:03;;;;;;;12.27;11.33;;;8.50;1.00;;;;;;5021573;28;20433;-46
2024/03/26 07:52:29;;;;;;;12.13;11.23;;;8.50;1.00;;;;;;5021651;28;20451;-47
2024/03/26 07:54:55;;;;;;;11.90;11.10;;;8.50;1.00;;;;;;5022448;28;20450;-46
2024/03/26 07:57:21;;;;;;;12.20;11.40;;;8.60;1.00;;;;;;5022843;28;20353;-46
2024/03/26 07:59:46;;;;;;;11.70;11.00;;;8.60;1.00;;;;;;5022982;28;20473;-44
2024/03/26 08:02:12;;;;;;;11.87;11.07;;;8.70;1.00;;;;;;5022830;28;20194;-50
2024/03/26 08:04:38;;;;;;;12.00;11.20;;;8.80;1.00;;;;;;5022873;28;20840;-49
2024/03/26 08:07:04;;;;;;;11.80;11.00;;;8.80;1.00;;;;;;5022638;28;20240;-45
2024/03/26 08:09:30;;;;;;;12.07;11.17;;;8.90;1.00;;;;;;5021127;28;20504;-40
2024/03/26 08:11:56;;;;;;;12.03;11.33;;;9.10;1.00;;;;;;5022924;28;20731;-44
2024/03/26 08:14:21;;;;;;;12.33;11.53;;;9.20;1.00;;;;;;5022179;28;20463;-42
2024/03/26 08:16:47;;;;;;;12.00;11.20;;;9.50;1.00;;;;;;5022750;28;20186;-38
2024/03/26 08:19:12;;;;;;;12.13;11.33;;;9.50;1.00;;;;;;5021585;28;20341;-39
2024/03/26 08:21:38;;;;;;;12.40;11.60;;;9.60;1.00;;;;;;5022643;28;20533;-38
2024/03/26 08:24:04;;;;;;;12.70;11.80;;;9.70;1.00;;;;;;5022645;28;20187;-45
2024/03/26 08:26:30;;;;;;;12.03;11.30;;;9.90;1.00;;;;;;5020432;28;20252;-41
2024/03/26 08:28:56;;;;;;;12.17;11.37;;;10.10;1.00;;;;;;5022318;28;20421;-48
2024/03/26 08:31:22;;;;;;;12.67;11.77;;;10.40;1.00;;;;;;5022497;28;20491;-44
2024/03/26 08:33:47;;;;;;;12.97;12.07;;;10.50;1.00;;;;;;5022885;28;20700;-46
2024/03/26 08:36:13;;;;;;;13.33;12.27;;;10.80;1.00;;;;;;5022421;28;20182;-41
2024/03/26 08:38:39;;;;;;;11.13;10.53;;;11.10;1.00;;;;;;5021897;28;20703;-43
2024/03/26 08:41:04;;;;;;;12.37;11.57;;;11.20;99.90;;;;;;5022282;28;20213;-42
2024/03/26 08:43:30;;;;;;;12.03;11.33;;;11.50;99.90;;;;;;5022021;28;20189;-40
2024/03/26 08:45:56;;;;;;;11.83;11.13;;;11.80;99.90;;;;;;5021350;28;20181;-44
2024/03/26 08:48:21;;;;;;;12.03;11.23;;;12.00;99.90;;;;;;5021356;28;20187;-44
2024/03/26 08:50:48;;;;;;;11.63;10.90;;;12.30;99.90;;;;;;5022087;28;20191;-42
2024/03/26 08:53:13;;;;;;;11.33;10.63;;;13.00;99.90;;;;;;5022145;28;20216;-46
2024/03/26 08:55:39;;;;;;;11.80;11.10;;;13.40;99.90;;;;;;5021815;28;20460;-49
2024/03/26 08:58:04;;;;;;;12.20;11.40;;;13.70;99.90;;;;;;5021628;28;20216;-47
2024/03/26 09:00:30;;;;;;;11.93;11.10;;;13.60;99.90;;;;;;5021401;28;20565;-48
2024/03/26 09:02:57;;;;;;;12.10;11.40;;;13.80;99.90;;;;;;5021775;28;20187;-42
2024/03/26 09:05:23;;;;;;;11.00;10.40;;;14.10;99.90;;;;;;5021835;28;20919;-44
2024/03/26 09:07:48;;;;;;;11.73;11.13;;;14.10;99.90;;;;;;5021541;28;20421;-42
2024/03/26 09:10:14;;;;;;;11.77;11.17;;;14.40;99.90;;;;;;5021671;28;20732;-43
2024/03/26 09:12:39;;;;;;;11.57;10.87;;;14.70;99.90;;;;;;5021860;28;20202;-41
2024/03/26 09:15:05;;;;;;;11.80;11.10;;;14.40;99.90;;;;;;5021284;28;20194;-46
2024/03/26 09:17:31;;;;;;;11.67;10.97;;;14.60;99.90;;;;;;5021382;28;20238;-46
2024/03/26 09:19:57;;;;;;;11.10;10.50;;;15.10;99.90;;;;;;5020500;28;20468;-45
2024/03/26 09:22:23;;;;;;;12.37;11.57;;;14.90;99.90;;;;;;5021608;28;20206;-42
2024/03/26 09:24:48;;;;;;;11.40;10.70;;;15.00;99.90;;;;;;5021224;28;20602;-45
2024/03/26 09:27:14;;;;;;;11.40;10.80;;;15.20;99.90;;;;;;5021143;28;20281;-42
2024/03/26 09:29:40;;;;;;;11.60;10.90;;;15.60;99.90;;;;;;5021380;28;20178;-46
2024/03/26 09:32:08;;;;;;;11.87;11.00;;;15.70;99.90;;;;;;5021362;28;21072;-43
2024/03/26 09:34:35;;;;;;;11.63;11.03;;;16.10;99.90;;;;;;5021351;28;21198;-51
2024/03/26 09:37:00;;;;;;;12.37;11.67;;;16.50;99.90;;;;;;5021698;28;20414;-52
2024/03/26 09:39:26;;;;;;;11.50;10.90;;;16.70;99.90;;;;;;5020920;28;20465;-51
2024/03/26 09:41:54;;;;;;;12.40;11.70;;;16.60;99.90;;;;;;5020904;28;20691;-49
2024/03/26 09:44:21;;;;;;;13.40;12.60;;;16.50;99.90;;;;;;5021085;28;20177;-48
2024/03/26 09:46:47;;;;;;;10.93;10.33;;;16.50;99.90;;;;;;5020624;28;20428;-46
2024/03/26 09:49:14;;;;;;;11.80;11.00;;;16.40;99.90;;;;;;5020389;28;20451;-42
2024/03/26 09:51:43;;;;;;;12.10;11.30;;;16.20;99.90;;;;;;5021052;28;20421;-43
2024/03/26 09:54:10;;;;;;;11.53;10.70;;;16.40;99.90;;;;;;5020980;28;20413;-42
2024/03/26 09:56:36;;;;;;;12.00;11.23;;;16.10;99.90;;;;;;5021068;28;20439;-40
2024/03/26 09:59:01;;;;;;;12.17;11.37;;;15.60;99.90;;;;;;5019295;28;20461;-42
2024/03/26 10:01:29;;;;;;;10.60;10.00;;;15.80;99.90;;;;;;5020552;28;20578;-42
2024/03/26 10:03:56;;;;;;;11.40;10.70;;;16.20;99.90;;;;;;5020607;28;20179;-42
2024/03/26 10:06:22;;;;;;;11.43;10.73;;;16.20;99.90;;;;;;5020413;28;20424;-45
2024/03/26 10:08:48;;;;;;;11.70;10.90;;;16.20;99.90;;;;;;5020553;28;20939;-46
2024/03/26 10:11:14;;;;;;;11.43;10.73;;;16.10;99.90;;;;;;5020517;28;20486;-42
2024/03/26 10:13:40;;;;;;;11.60;11.00;;;15.90;99.90;;;;;;5020462;28;21116;-43
2024/03/26 10:16:06;;;;;;;11.23;10.63;;;16.50;99.90;;;;;;5018900;28;20190;-42
2024/03/26 10:18:31;;;;;;;12.27;11.57;;;17.20;99.90;;;;;;5020196;28;20245;-42
2024/03/26 10:20:58;;;;;;;12.00;11.30;;;17.00;99.90;;;;;;5019460;28;20183;-39
2024/03/26 10:23:26;;;;;;;11.27;10.60;;;17.00;99.90;;;;;;5020255;28;20228;-44
2024/03/26 10:25:51;;;;;;;12.10;11.50;;;17.30;99.90;;;;;;5020063;28;20467;-47
2024/03/26 10:28:17;;;;;;;11.83;11.13;;;17.30;99.90;;;;;;5020550;28;20854;-43
2024/03/26 10:30:43;;;;;;;12.70;12.00;;;17.90;99.90;;;;;;5020011;28;20561;-44
2024/03/26 10:33:11;;;;;;;12.23;11.53;;;18.60;99.90;;;;;;5020211;28;20218;-42
2024/03/26 10:35:40;;;;;;;13.07;12.37;;;18.70;99.90;;;;;;5020310;28;20281;-44
2024/03/26 10:38:09;;;;;;;11.53;10.83;;;19.10;99.90;;;;;;5019996;28;21032;-46
2024/03/26 10:41:02;;;;;;;12.47;11.70;;;19.80;99.90;;;;;;5019817;28;20417;-40
2024/03/26 10:43:28;;;;;;;12.10;11.40;;;20.30;99.90;;;;;;5020098;28;20712;-43
2024/03/26 10:45:54;;;;;;;12.57;11.97;;;20.50;99.90;;;;;;5019149;28;20432;-43
2024/03/26 10:48:23;;;;;;;12.10;11.40;;;21.00;99.90;;;;;;5019536;28;20236;-43
2024/03/26 10:50:52;;;;;;;12.07;11.47;;;20.50;99.90;;;;;;5020277;28;20474;-45
2024/03/26 10:53:20;;;;;;;13.13;12.33;;;20.80;99.90;;;;;;5019451;28;20431;-43
2024/03/26 10:55:46;;;;;;;11.80;11.20;;;20.80;99.90;;;;;;5019774;28;20456;-46
2024/03/26 10:58:12;;;;;;;12.43;11.73;;;20.70;99.90;;;;;;5019732;28;20932;-45
2024/03/26 11:00:39;;;;;;;12.70;12.00;;;20.20;99.90;;;;;;5019486;28;20741;-44
2024/03/26 11:03:08;;;;;;;13.47;12.67;;;19.70;99.90;;;;;;5019505;28;20186;-40
2024/03/26 11:05:36;;;;;;;12.10;11.40;;;19.10;99.90;;;;;;5019616;28;20417;-43
2024/03/26 11:08:02;;;;;;;12.03;11.33;;;19.10;99.90;;;;;;5019666;28;20417;-42
2024/03/26 11:10:28;;;;;;;13.13;12.33;;;19.40;99.90;;;;;;5019316;28;20811;-40
2024/03/26 11:12:57;;;;;;;13.90;12.90;;;19.40;99.90;;;;;;5019242;28;20417;-48
2024/03/26 11:15:28;;;;;;;12.90;12.20;;;19.20;99.90;;;;;;5018608;28;20711;-39
2024/03/26 11:17:58;;;;;;;13.20;12.40;;;18.40;99.90;;;;;;5018685;28;20497;-43
2024/03/26 11:20:27;;;;;;;13.83;13.03;;;18.60;99.90;;;;;;5019708;28;20481;-39
2024/03/26 11:23:02;;;;;;;12.43;11.73;;;18.80;99.90;;;;;;5019391;28;21150;-39
2024/03/26 11:25:29;;;;;;;13.40;12.60;;;19.20;99.90;;;;;;5019825;28;20417;-41
2024/03/26 11:27:58;;;;;;;12.60;11.80;;;19.80;99.90;;;;;;5019159;28;20464;-42
2024/03/26 11:30:27;;;;;;;12.10;11.40;;;20.10;99.90;;;;;;5019265;28;20421;-41
2024/03/26 11:32:53;;;;;;;12.70;11.90;;;20.60;99.90;;;;;;5019221;28;20417;-43
2024/03/26 11:35:27;;;;;;;12.40;11.60;;;20.50;99.90;;;;;;5019755;28;20887;-44
2024/03/26 11:37:58;;;;;;;12.53;11.83;;;20.60;99.90;;;;;;5017648;28;20475;-40
2024/03/26 11:40:24;;;;;;;12.30;11.60;;;21.00;99.90;;;;;;5019866;28;20460;-45
2024/03/26 11:42:55;;;;;;;12.80;11.90;;;21.30;99.90;;;;;;5019245;28;20467;-41
2024/03/26 11:45:21;;;;;;;13.40;12.60;;;20.90;99.90;;;;;;5018624;28;20457;-42
2024/03/26 11:47:46;;;;;;;12.87;12.17;;;20.80;99.90;;;;;;5019154;28;20497;-44
2024/03/26 11:50:12;;;;;;;13.20;12.47;;;20.80;99.90;;;;;;5019569;28;20931;-42
2024/03/26 11:52:38;;;;;;;14.03;13.20;;;20.90;99.90;;;;;;5019480;28;20507;-44
2024/03/26 11:55:08;;;;;;;13.70;12.90;;;21.00;99.90;;;;;;5019397;28;20410;-45
2024/03/26 11:57:36;;;;;;;12.10;11.40;;;20.80;99.90;;;;;;5018892;28;20421;-45
2024/03/26 12:00:05;;;;;;;12.50;11.80;;;20.80;99.90;;;;;;5019151;28;20472;-40
2024/03/26 12:02:31;;;;;;;13.23;12.43;;;20.80;99.90;;;;;;5018764;28;20416;-47
2024/03/26 12:04:58;;;;;;;13.80;12.90;;;20.90;99.90;;;;;;5019356;28;20421;-42
2024/03/26 12:07:26;;;;;;;12.90;12.10;;;19.90;99.90;;;;;;5019290;28;20846;-44
2024/03/26 12:09:53;;;;;;;13.33;12.53;;;20.00;99.90;;;;;;5019514;28;20558;-40
2024/03/26 12:12:18;;;;;;;12.93;12.13;;;19.20;99.90;;;;;;5018748;28;20417;-44
2024/03/26 12:14:45;;;;;;;13.50;12.70;;;19.40;99.90;;;;;;5018504;28;20244;-41
2024/03/26 12:17:11;;;;;;;13.10;12.30;;;20.00;99.90;;;;;;5018416;28;20171;-49
2024/03/26 12:19:41;;;;;;;13.00;12.20;;;20.60;99.90;;;;;;5017731;28;20471;-48
2024/03/26 12:22:11;;;;;;;12.73;11.97;;;21.20;99.90;;;;;;5019187;28;20949;-47
2024/03/26 12:24:37;;;;;;;12.50;11.80;;;21.30;99.90;;;;;;5022577;28;20734;-46
2024/03/26 12:27:03;;;;;;;13.17;12.37;;;21.00;99.90;;;;;;5023037;28;20424;-46
2024/03/26 12:29:30;;;;;;;13.07;12.33;;;21.80;99.90;;;;;;5022526;28;20775;-47
2024/03/26 12:31:56;;;;;;;12.47;11.87;;;22.00;99.90;;;;;;5022310;28;20499;-48